sensor_id;sensor_type;location;lat;lon;timestamp;P1;durP1;ratioP1;P2;durP2;ratioP2
42124;SDS011;27787;44.594;11.046;2023-01-10T00:00:07;10.68;;;5.45;;
42124;SDS011;27787;44.594;11.046;2023-01-10T00:02:52;10.98;;;6.07;;
42124;SDS011;27787;44.594;11.046;2023-01-10T00:05:37;10.43;;;5.15;;
42124;SDS011;27787;44.594;11.046;2023-01-10T00:08:22;12.05;;;5.18;;
42124;SDS011;27787;44.594;11.046;2023-01-10T00:11:05;8.38;;;4.43;;
42124;SDS011;27787;44.594;11.046;2023-01-10T00:14:16;9.95;;;4.97;;
42124;SDS011;27787;44.594;11.046;2023-01-10T00:17:03;10.43;;;4.50;;
42124;SDS011;27787;44.594;11.046;2023-01-10T00:19:48;10.73;;;5.07;;
42124;SDS011;27787;44.594;11.046;2023-01-10T00:22:32;9.38;;;5.03;;
42124;SDS011;27787;44.594;11.046;2023-01-10T00:25:16;10.70;;;5.72;;
42124;SDS011;27787;44.594;11.046;2023-01-10T00:28:04;11.55;;;5.18;;
42124;SDS011;27787;44.594;11.046;2023-01-10T00:31:08;11.30;;;5.03;;
42124;SDS011;27787;44.594;11.046;2023-01-10T00:33:54;10.75;;;5.60;;
42124;SDS011;27787;44.594;11.046;2023-01-10T00:36:38;11.82;;;5.70;;
42124;SDS011;27787;44.594;11.046;2023-01-10T00:39:22;10.88;;;5.72;;
42124;SDS011;27787;44.594;11.046;2023-01-10T00:42:10;13.35;;;6.50;;
42124;SDS011;27787;44.594;11.046;2023-01-10T00:45:13;11.20;;;5.63;;
42124;SDS011;27787;44.594;11.046;2023-01-10T00:47:59;10.18;;;5.13;;
42124;SDS011;27787;44.594;11.046;2023-01-10T00:50:43;10.23;;;6.00;;
42124;SDS011;27787;44.594;11.046;2023-01-10T00:53:27;9.80;;;5.35;;
42124;SDS011;27787;44.594;11.046;2023-01-10T00:56:11;11.52;;;5.38;;
42124;SDS011;27787;44.594;11.046;2023-01-10T00:58:56;9.27;;;5.55;;
42124;SDS011;27787;44.594;11.046;2023-01-10T01:01:40;9.57;;;5.28;;
42124;SDS011;27787;44.594;11.046;2023-01-10T01:04:24;9.05;;;4.80;;
42124;SDS011;27787;44.594;11.046;2023-01-10T01:07:09;10.90;;;5.47;;
42124;SDS011;27787;44.594;11.046;2023-01-10T01:09:53;9.25;;;4.82;;
42124;SDS011;27787;44.594;11.046;2023-01-10T01:12:57;9.40;;;4.72;;
42124;SDS011;27787;44.594;11.046;2023-01-10T01:15:48;8.35;;;4.47;;
42124;SDS011;27787;44.594;11.046;2023-01-10T01:18:32;8.27;;;4.63;;
42124;SDS011;27787;44.594;11.046;2023-01-10T01:21:18;9.07;;;4.47;;
42124;SDS011;27787;44.594;11.046;2023-01-10T01:24:03;7.82;;;4.30;;
42124;SDS011;27787;44.594;11.046;2023-01-10T01:26:48;13.57;;;5.18;;
42124;SDS011;27787;44.594;11.046;2023-01-10T01:29:32;9.75;;;4.43;;
42124;SDS011;27787;44.594;11.046;2023-01-10T01:32:16;7.88;;;4.38;;
42124;SDS011;27787;44.594;11.046;2023-01-10T01:35:01;9.27;;;5.13;;
42124;SDS011;27787;44.594;11.046;2023-01-10T01:37:46;7.75;;;4.45;;
42124;SDS011;27787;44.594;11.046;2023-01-10T01:40:30;9.68;;;4.82;;
42124;SDS011;27787;44.594;11.046;2023-01-10T01:43:23;9.80;;;4.50;;
42124;SDS011;27787;44.594;11.046;2023-01-10T01:46:08;9.30;;;5.25;;
42124;SDS011;27787;44.594;11.046;2023-01-10T01:48:53;9.15;;;4.85;;
42124;SDS011;27787;44.594;11.046;2023-01-10T01:51:36;12.60;;;5.55;;
42124;SDS011;27787;44.594;11.046;2023-01-10T01:54:21;10.40;;;5.30;;
42124;SDS011;27787;44.594;11.046;2023-01-10T01:57:06;11.02;;;5.28;;
42124;SDS011;27787;44.594;11.046;2023-01-10T01:59:56;9.80;;;5.25;;
42124;SDS011;27787;44.594;11.046;2023-01-10T02:02:45;10.95;;;4.97;;
42124;SDS011;27787;44.594;11.046;2023-01-10T02:05:33;11.32;;;6.38;;
42124;SDS011;27787;44.594;11.046;2023-01-10T02:08:20;9.32;;;5.10;;
42124;SDS011;27787;44.594;11.046;2023-01-10T02:11:08;16.75;;;5.20;;
42124;SDS011;27787;44.594;11.046;2023-01-10T02:13:53;10.15;;;5.03;;
42124;SDS011;27787;44.594;11.046;2023-01-10T02:16:38;12.10;;;5.25;;
42124;SDS011;27787;44.594;11.046;2023-01-10T02:19:31;11.07;;;5.57;;
42124;SDS011;27787;44.594;11.046;2023-01-10T02:28:59;9.30;;;4.45;;
42124;SDS011;27787;44.594;11.046;2023-01-10T02:38:41;7.88;;;4.28;;
42124;SDS011;27787;44.594;11.046;2023-01-10T02:41:05;11.40;;;4.22;;
42124;SDS011;27787;44.594;11.046;2023-01-10T02:44:18;7.25;;;3.70;;
42124;SDS011;27787;44.594;11.046;2023-01-10T02:47:11;8.15;;;4.40;;
42124;SDS011;27787;44.594;11.046;2023-01-10T02:49:57;8.18;;;4.20;;
42124;SDS011;27787;44.594;11.046;2023-01-10T02:53:03;5.65;;;2.97;;
42124;SDS011;27787;44.594;11.046;2023-01-10T03:05:38;5.72;;;2.65;;
42124;SDS011;27787;44.594;11.046;2023-01-10T03:12:00;4.85;;;2.30;;
42124;SDS011;27787;44.594;11.046;2023-01-10T03:14:53;5.53;;;2.03;;
42124;SDS011;27787;44.594;11.046;2023-01-10T03:17:40;7.03;;;1.88;;
42124;SDS011;27787;44.594;11.046;2023-01-10T03:20:28;3.72;;;1.60;;
42124;SDS011;27787;44.594;11.046;2023-01-10T03:23:16;6.72;;;2.30;;
42124;SDS011;27787;44.594;11.046;2023-01-10T03:26:02;2.78;;;1.70;;
42124;SDS011;27787;44.594;11.046;2023-01-10T03:28:50;6.00;;;1.65;;
42124;SDS011;27787;44.594;11.046;2023-01-10T03:31:41;3.80;;;1.65;;
42124;SDS011;27787;44.594;11.046;2023-01-10T03:34:32;2.30;;;1.63;;
42124;SDS011;27787;44.594;11.046;2023-01-10T03:43:27;4.20;;;1.98;;
42124;SDS011;27787;44.594;11.046;2023-01-10T03:49:26;2.95;;;1.40;;
42124;SDS011;27787;44.594;11.046;2023-01-10T03:52:12;3.53;;;1.80;;
42124;SDS011;27787;44.594;11.046;2023-01-10T03:54:58;3.53;;;1.70;;
42124;SDS011;27787;44.594;11.046;2023-01-10T03:57:43;3.22;;;1.95;;
42124;SDS011;27787;44.594;11.046;2023-01-10T04:00:31;7.63;;;2.33;;
42124;SDS011;27787;44.594;11.046;2023-01-10T04:03:15;4.45;;;1.85;;
42124;SDS011;27787;44.594;11.046;2023-01-10T04:06:00;4.20;;;1.60;;
42124;SDS011;27787;44.594;11.046;2023-01-10T04:08:45;6.25;;;2.63;;
42124;SDS011;27787;44.594;11.046;2023-01-10T04:11:29;4.07;;;1.73;;
42124;SDS011;27787;44.594;11.046;2023-01-10T04:14:13;2.95;;;1.65;;
42124;SDS011;27787;44.594;11.046;2023-01-10T04:16:58;2.63;;;1.42;;
42124;SDS011;27787;44.594;11.046;2023-01-10T04:19:42;2.67;;;1.50;;
42124;SDS011;27787;44.594;11.046;2023-01-10T04:22:27;3.33;;;1.75;;
42124;SDS011;27787;44.594;11.046;2023-01-10T04:25:11;3.50;;;1.80;;
42124;SDS011;27787;44.594;11.046;2023-01-10T04:27:55;3.13;;;1.70;;
42124;SDS011;27787;44.594;11.046;2023-01-10T04:30:39;3.47;;;1.75;;
42124;SDS011;27787;44.594;11.046;2023-01-10T04:33:24;4.82;;;1.75;;
42124;SDS011;27787;44.594;11.046;2023-01-10T04:36:08;3.78;;;1.92;;
42124;SDS011;27787;44.594;11.046;2023-01-10T04:38:53;5.30;;;2.10;;
42124;SDS011;27787;44.594;11.046;2023-01-10T04:41:37;4.05;;;1.90;;
42124;SDS011;27787;44.594;11.046;2023-01-10T04:44:22;3.63;;;1.80;;
42124;SDS011;27787;44.594;11.046;2023-01-10T04:47:06;5.25;;;1.70;;
42124;SDS011;27787;44.594;11.046;2023-01-10T04:49:50;4.75;;;1.88;;
42124;SDS011;27787;44.594;11.046;2023-01-10T04:52:34;5.65;;;1.70;;
42124;SDS011;27787;44.594;11.046;2023-01-10T04:55:18;3.08;;;2.00;;
42124;SDS011;27787;44.594;11.046;2023-01-10T04:58:02;3.78;;;2.00;;
42124;SDS011;27787;44.594;11.046;2023-01-10T05:00:47;6.13;;;2.45;;
42124;SDS011;27787;44.594;11.046;2023-01-10T05:03:32;5.07;;;2.20;;
42124;SDS011;27787;44.594;11.046;2023-01-10T05:06:16;4.70;;;2.20;;
42124;SDS011;27787;44.594;11.046;2023-01-10T05:09:01;6.10;;;2.27;;
42124;SDS011;27787;44.594;11.046;2023-01-10T05:11:45;5.53;;;2.17;;
42124;SDS011;27787;44.594;11.046;2023-01-10T05:14:29;5.45;;;2.33;;
42124;SDS011;27787;44.594;11.046;2023-01-10T05:17:13;4.53;;;2.20;;
42124;SDS011;27787;44.594;11.046;2023-01-10T05:19:57;6.13;;;2.10;;
42124;SDS011;27787;44.594;11.046;2023-01-10T05:22:42;4.03;;;2.20;;
42124;SDS011;27787;44.594;11.046;2023-01-10T05:25:26;7.07;;;2.45;;
42124;SDS011;27787;44.594;11.046;2023-01-10T05:28:10;5.18;;;2.78;;
42124;SDS011;27787;44.594;11.046;2023-01-10T05:30:55;4.05;;;2.30;;
42124;SDS011;27787;44.594;11.046;2023-01-10T05:33:39;4.93;;;2.30;;
42124;SDS011;27787;44.594;11.046;2023-01-10T05:36:27;4.55;;;2.38;;
42124;SDS011;27787;44.594;11.046;2023-01-10T05:39:11;6.82;;;3.00;;
42124;SDS011;27787;44.594;11.046;2023-01-10T05:41:56;6.57;;;3.15;;
42124;SDS011;27787;44.594;11.046;2023-01-10T05:44:41;5.97;;;2.50;;
42124;SDS011;27787;44.594;11.046;2023-01-10T05:47:25;8.73;;;2.60;;
42124;SDS011;27787;44.594;11.046;2023-01-10T05:50:10;8.63;;;2.35;;
42124;SDS011;27787;44.594;11.046;2023-01-10T05:52:54;7.10;;;3.08;;
42124;SDS011;27787;44.594;11.046;2023-01-10T05:55:40;5.80;;;2.85;;
42124;SDS011;27787;44.594;11.046;2023-01-10T05:58:25;4.40;;;2.22;;
42124;SDS011;27787;44.594;11.046;2023-01-10T06:01:10;11.73;;;2.30;;
42124;SDS011;27787;44.594;11.046;2023-01-10T06:03:54;4.95;;;2.22;;
42124;SDS011;27787;44.594;11.046;2023-01-10T06:06:38;4.82;;;2.05;;
42124;SDS011;27787;44.594;11.046;2023-01-10T06:09:23;5.18;;;2.45;;
42124;SDS011;27787;44.594;11.046;2023-01-10T06:12:07;5.50;;;2.25;;
42124;SDS011;27787;44.594;11.046;2023-01-10T06:14:51;6.88;;;2.20;;
42124;SDS011;27787;44.594;11.046;2023-01-10T06:17:35;4.75;;;2.30;;
42124;SDS011;27787;44.594;11.046;2023-01-10T06:20:19;3.17;;;1.83;;
42124;SDS011;27787;44.594;11.046;2023-01-10T06:23:03;5.53;;;2.40;;
42124;SDS011;27787;44.594;11.046;2023-01-10T06:25:47;5.32;;;2.50;;
42124;SDS011;27787;44.594;11.046;2023-01-10T06:28:31;9.40;;;2.50;;
42124;SDS011;27787;44.594;11.046;2023-01-10T06:31:15;5.25;;;2.30;;
42124;SDS011;27787;44.594;11.046;2023-01-10T06:33:59;6.53;;;2.72;;
42124;SDS011;27787;44.594;11.046;2023-01-10T06:36:43;4.10;;;2.28;;
42124;SDS011;27787;44.594;11.046;2023-01-10T06:39:27;6.40;;;2.40;;
42124;SDS011;27787;44.594;11.046;2023-01-10T06:42:11;11.73;;;3.50;;
42124;SDS011;27787;44.594;11.046;2023-01-10T06:44:56;4.10;;;2.40;;
42124;SDS011;27787;44.594;11.046;2023-01-10T06:47:40;3.45;;;1.90;;
42124;SDS011;27787;44.594;11.046;2023-01-10T06:50:25;7.75;;;3.35;;
42124;SDS011;27787;44.594;11.046;2023-01-10T06:53:09;3.97;;;2.35;;
42124;SDS011;27787;44.594;11.046;2023-01-10T06:55:53;4.45;;;2.35;;
42124;SDS011;27787;44.594;11.046;2023-01-10T06:58:40;4.00;;;2.22;;
42124;SDS011;27787;44.594;11.046;2023-01-10T07:01:24;6.75;;;2.45;;
42124;SDS011;27787;44.594;11.046;2023-01-10T07:04:08;6.15;;;2.80;;
42124;SDS011;27787;44.594;11.046;2023-01-10T07:06:52;5.40;;;2.25;;
42124;SDS011;27787;44.594;11.046;2023-01-10T07:09:37;5.93;;;2.47;;
42124;SDS011;27787;44.594;11.046;2023-01-10T07:12:20;7.78;;;2.72;;
42124;SDS011;27787;44.594;11.046;2023-01-10T07:15:05;6.07;;;2.10;;
42124;SDS011;27787;44.594;11.046;2023-01-10T07:17:50;8.10;;;2.08;;
42124;SDS011;27787;44.594;11.046;2023-01-10T07:20:34;10.80;;;2.30;;
42124;SDS011;27787;44.594;11.046;2023-01-10T07:23:18;5.60;;;2.30;;
42124;SDS011;27787;44.594;11.046;2023-01-10T07:26:03;4.95;;;2.20;;
42124;SDS011;27787;44.594;11.046;2023-01-10T07:28:49;4.60;;;2.30;;
42124;SDS011;27787;44.594;11.046;2023-01-10T07:31:34;4.45;;;2.30;;
42124;SDS011;27787;44.594;11.046;2023-01-10T07:34:18;4.95;;;2.47;;
42124;SDS011;27787;44.594;11.046;2023-01-10T07:37:03;7.10;;;2.30;;
42124;SDS011;27787;44.594;11.046;2023-01-10T07:39:47;3.13;;;1.70;;
42124;SDS011;27787;44.594;11.046;2023-01-10T07:42:32;6.47;;;2.15;;
42124;SDS011;27787;44.594;11.046;2023-01-10T07:45:16;5.25;;;2.42;;
42124;SDS011;27787;44.594;11.046;2023-01-10T07:48:02;4.63;;;2.10;;
42124;SDS011;27787;44.594;11.046;2023-01-10T07:50:47;5.75;;;2.15;;
42124;SDS011;27787;44.594;11.046;2023-01-10T07:53:31;8.10;;;1.90;;
42124;SDS011;27787;44.594;11.046;2023-01-10T07:56:15;5.80;;;2.13;;
42124;SDS011;27787;44.594;11.046;2023-01-10T07:58:59;4.03;;;1.90;;
42124;SDS011;27787;44.594;11.046;2023-01-10T08:01:44;9.80;;;2.05;;
42124;SDS011;27787;44.594;11.046;2023-01-10T08:04:27;2.67;;;1.50;;
42124;SDS011;27787;44.594;11.046;2023-01-10T08:07:12;3.00;;;1.35;;
42124;SDS011;27787;44.594;11.046;2023-01-10T08:09:55;3.58;;;1.38;;
42124;SDS011;27787;44.594;11.046;2023-01-10T08:12:40;6.53;;;1.38;;
42124;SDS011;27787;44.594;11.046;2023-01-10T08:15:24;6.65;;;1.50;;
42124;SDS011;27787;44.594;11.046;2023-01-10T08:18:09;2.33;;;1.23;;
42124;SDS011;27787;44.594;11.046;2023-01-10T08:20:53;3.42;;;1.40;;
42124;SDS011;27787;44.594;11.046;2023-01-10T08:23:37;3.05;;;1.60;;
42124;SDS011;27787;44.594;11.046;2023-01-10T08:26:22;3.33;;;1.48;;
42124;SDS011;27787;44.594;11.046;2023-01-10T08:29:06;7.38;;;1.50;;
42124;SDS011;27787;44.594;11.046;2023-01-10T08:31:50;20.48;;;1.90;;
42124;SDS011;27787;44.594;11.046;2023-01-10T08:34:34;3.38;;;1.48;;
42124;SDS011;27787;44.594;11.046;2023-01-10T08:37:19;3.53;;;1.85;;
42124;SDS011;27787;44.594;11.046;2023-01-10T08:40:03;2.25;;;1.27;;
42124;SDS011;27787;44.594;11.046;2023-01-10T08:42:54;7.43;;;1.95;;
42124;SDS011;27787;44.594;11.046;2023-01-10T08:45:40;2.67;;;1.30;;
42124;SDS011;27787;44.594;11.046;2023-01-10T08:48:24;2.38;;;1.27;;
42124;SDS011;27787;44.594;11.046;2023-01-10T08:51:09;2.28;;;1.13;;
42124;SDS011;27787;44.594;11.046;2023-01-10T08:53:53;3.55;;;1.30;;
42124;SDS011;27787;44.594;11.046;2023-01-10T08:56:38;4.07;;;1.80;;
42124;SDS011;27787;44.594;11.046;2023-01-10T08:59:23;3.47;;;1.25;;
42124;SDS011;27787;44.594;11.046;2023-01-10T09:02:09;2.50;;;1.20;;
42124;SDS011;27787;44.594;11.046;2023-01-10T09:04:56;2.92;;;0.73;;
42124;SDS011;27787;44.594;11.046;2023-01-10T09:07:40;2.75;;;1.00;;
42124;SDS011;27787;44.594;11.046;2023-01-10T09:10:25;2.83;;;0.80;;
42124;SDS011;27787;44.594;11.046;2023-01-10T09:13:09;2.90;;;1.10;;
42124;SDS011;27787;44.594;11.046;2023-01-10T09:15:54;2.85;;;1.25;;
42124;SDS011;27787;44.594;11.046;2023-01-10T09:18:39;1.58;;;0.63;;
42124;SDS011;27787;44.594;11.046;2023-01-10T09:21:23;1.45;;;0.80;;
42124;SDS011;27787;44.594;11.046;2023-01-10T09:24:07;2.72;;;1.23;;
42124;SDS011;27787;44.594;11.046;2023-01-10T09:26:51;1.30;;;0.80;;
42124;SDS011;27787;44.594;11.046;2023-01-10T09:29:35;1.70;;;0.63;;
42124;SDS011;27787;44.594;11.046;2023-01-10T09:32:20;1.85;;;0.80;;
42124;SDS011;27787;44.594;11.046;2023-01-10T09:35:04;0.63;;;0.52;;
42124;SDS011;27787;44.594;11.046;2023-01-10T09:37:49;1.73;;;0.73;;
42124;SDS011;27787;44.594;11.046;2023-01-10T09:50:16;0.63;;;0.53;;
42124;SDS011;27787;44.594;11.046;2023-01-10T09:53:09;2.13;;;0.90;;
42124;SDS011;27787;44.594;11.046;2023-01-10T09:55:57;5.45;;;1.83;;
42124;SDS011;27787;44.594;11.046;2023-01-10T09:58:43;5.15;;;2.25;;
42124;SDS011;27787;44.594;11.046;2023-01-10T10:01:31;6.73;;;1.57;;
42124;SDS011;27787;44.594;11.046;2023-01-10T10:07:13;2.55;;;0.73;;
42124;SDS011;27787;44.594;11.046;2023-01-10T10:09:58;5.60;;;1.17;;
42124;SDS011;27787;44.594;11.046;2023-01-10T10:12:46;5.63;;;0.80;;
42124;SDS011;27787;44.594;11.046;2023-01-10T10:15:45;0.50;;;0.50;;
42124;SDS011;27787;44.594;11.046;2023-01-10T10:27:48;2.42;;;0.70;;
42124;SDS011;27787;44.594;11.046;2023-01-10T10:34:16;4.53;;;0.70;;
42124;SDS011;27787;44.594;11.046;2023-01-10T10:37:26;2.92;;;0.47;;
42124;SDS011;27787;44.594;11.046;2023-01-10T10:40:24;2.75;;;0.65;;
42124;SDS011;27787;44.594;11.046;2023-01-10T10:43:16;7.65;;;0.73;;
42124;SDS011;27787;44.594;11.046;2023-01-10T10:46:10;3.88;;;1.00;;
42124;SDS011;27787;44.594;11.046;2023-01-10T10:48:58;1.10;;;0.63;;
42124;SDS011;27787;44.594;11.046;2023-01-10T10:51:50;1.02;;;0.50;;
42124;SDS011;27787;44.594;11.046;2023-01-10T10:54:35;0.75;;;0.52;;
42124;SDS011;27787;44.594;11.046;2023-01-10T10:57:20;6.03;;;0.60;;
42124;SDS011;27787;44.594;11.046;2023-01-10T11:00:12;1.88;;;0.70;;
42124;SDS011;27787;44.594;11.046;2023-01-10T11:05:55;0.45;;;0.43;;
42124;SDS011;27787;44.594;11.046;2023-01-10T11:08:41;1.65;;;0.60;;
42124;SDS011;27787;44.594;11.046;2023-01-10T11:11:28;0.52;;;0.38;;
42124;SDS011;27787;44.594;11.046;2023-01-10T11:14:38;1.27;;;0.50;;
42124;SDS011;27787;44.594;11.046;2023-01-10T11:17:31;2.67;;;0.60;;
42124;SDS011;27787;44.594;11.046;2023-01-10T11:20:23;0.90;;;0.50;;
42124;SDS011;27787;44.594;11.046;2023-01-10T11:23:08;0.95;;;0.43;;
42124;SDS011;27787;44.594;11.046;2023-01-10T11:25:52;3.80;;;0.65;;
42124;SDS011;27787;44.594;11.046;2023-01-10T11:28:36;1.38;;;0.57;;
42124;SDS011;27787;44.594;11.046;2023-01-10T11:31:25;1.52;;;0.47;;
42124;SDS011;27787;44.594;11.046;2023-01-10T11:34:32;1.25;;;0.60;;
42124;SDS011;27787;44.594;11.046;2023-01-10T11:37:22;1.88;;;0.22;;
42124;SDS011;27787;44.594;11.046;2023-01-10T11:40:20;1.23;;;0.50;;
42124;SDS011;27787;44.594;11.046;2023-01-10T11:43:23;1.00;;;0.30;;
42124;SDS011;27787;44.594;11.046;2023-01-10T11:46:15;0.70;;;0.20;;
42124;SDS011;27787;44.594;11.046;2023-01-10T11:51:55;1.45;;;0.20;;
42124;SDS011;27787;44.594;11.046;2023-01-10T11:54:42;0.68;;;0.25;;
42124;SDS011;27787;44.594;11.046;2023-01-10T11:57:28;0.73;;;0.30;;
42124;SDS011;27787;44.594;11.046;2023-01-10T12:00:14;1.17;;;0.63;;
42124;SDS011;27787;44.594;11.046;2023-01-10T12:03:00;0.88;;;0.40;;
42124;SDS011;27787;44.594;11.046;2023-01-10T12:06:02;1.33;;;0.60;;
42124;SDS011;27787;44.594;11.046;2023-01-10T12:08:50;0.75;;;0.30;;
42124;SDS011;27787;44.594;11.046;2023-01-10T12:11:38;2.03;;;0.68;;
42124;SDS011;27787;44.594;11.046;2023-01-10T12:14:23;0.40;;;0.30;;
42124;SDS011;27787;44.594;11.046;2023-01-10T12:17:30;1.55;;;0.45;;
42124;SDS011;27787;44.594;11.046;2023-01-10T12:20:16;1.95;;;1.25;;
42124;SDS011;27787;44.594;11.046;2023-01-10T12:23:10;1.67;;;0.30;;
42124;SDS011;27787;44.594;11.046;2023-01-10T12:26:03;1.08;;;0.30;;
42124;SDS011;27787;44.594;11.046;2023-01-10T12:28:52;1.20;;;0.52;;
42124;SDS011;27787;44.594;11.046;2023-01-10T12:31:39;0.80;;;0.38;;
42124;SDS011;27787;44.594;11.046;2023-01-10T12:34:25;1.63;;;0.57;;
42124;SDS011;27787;44.594;11.046;2023-01-10T12:37:29;1.00;;;0.40;;
42124;SDS011;27787;44.594;11.046;2023-01-10T12:41:09;0.73;;;0.30;;
42124;SDS011;27787;44.594;11.046;2023-01-10T12:43:41;0.80;;;0.45;;
42124;SDS011;27787;44.594;11.046;2023-01-10T12:47:04;1.23;;;0.47;;
42124;SDS011;27787;44.594;11.046;2023-01-10T12:55:52;2.35;;;1.17;;
42124;SDS011;27787;44.594;11.046;2023-01-10T12:58:44;0.85;;;0.50;;
42124;SDS011;27787;44.594;11.046;2023-01-10T13:01:36;3.00;;;0.50;;
42124;SDS011;27787;44.594;11.046;2023-01-10T13:04:23;1.73;;;0.30;;
42124;SDS011;27787;44.594;11.046;2023-01-10T13:07:09;0.22;;;0.20;;
42124;SDS011;27787;44.594;11.046;2023-01-10T13:09:56;0.98;;;0.30;;
42124;SDS011;27787;44.594;11.046;2023-01-10T13:12:41;0.20;;;0.20;;
42124;SDS011;27787;44.594;11.046;2023-01-10T13:15:37;0.30;;;0.30;;
42124;SDS011;27787;44.594;11.046;2023-01-10T13:18:28;1.75;;;0.38;;
42124;SDS011;27787;44.594;11.046;2023-01-10T13:21:17;0.77;;;0.40;;
42124;SDS011;27787;44.594;11.046;2023-01-10T13:26:57;0.70;;;0.40;;
42124;SDS011;27787;44.594;11.046;2023-01-10T13:29:42;2.63;;;0.32;;
42124;SDS011;27787;44.594;11.046;2023-01-10T13:32:28;1.88;;;0.60;;
42124;SDS011;27787;44.594;11.046;2023-01-10T13:35:16;1.08;;;0.70;;
42124;SDS011;27787;44.594;11.046;2023-01-10T13:38:01;0.77;;;0.47;;
42124;SDS011;27787;44.594;11.046;2023-01-10T13:41:00;1.25;;;0.50;;
42124;SDS011;27787;44.594;11.046;2023-01-10T13:44:03;1.67;;;0.60;;
42124;SDS011;27787;44.594;11.046;2023-01-10T13:47:03;1.20;;;0.60;;
42124;SDS011;27787;44.594;11.046;2023-01-10T13:49:47;2.38;;;0.57;;
42124;SDS011;27787;44.594;11.046;2023-01-10T13:52:32;4.30;;;0.80;;
42124;SDS011;27787;44.594;11.046;2023-01-10T13:55:58;2.53;;;0.57;;
42124;SDS011;27787;44.594;11.046;2023-01-10T13:58:39;3.13;;;0.60;;
42124;SDS011;27787;44.594;11.046;2023-01-10T14:01:46;5.47;;;0.50;;
42124;SDS011;27787;44.594;11.046;2023-01-10T14:04:54;0.77;;;0.45;;
42124;SDS011;27787;44.594;11.046;2023-01-10T14:07:46;1.08;;;0.50;;
42124;SDS011;27787;44.594;11.046;2023-01-10T14:10:32;1.10;;;0.43;;
42124;SDS011;27787;44.594;11.046;2023-01-10T14:13:18;3.80;;;0.70;;
42124;SDS011;27787;44.594;11.046;2023-01-10T14:16:05;1.00;;;0.30;;
42124;SDS011;27787;44.594;11.046;2023-01-10T14:19:22;0.55;;;0.30;;
42124;SDS011;27787;44.594;11.046;2023-01-10T14:25:16;0.85;;;0.40;;
42124;SDS011;27787;44.594;11.046;2023-01-10T14:28:02;1.23;;;0.57;;
42124;SDS011;27787;44.594;11.046;2023-01-10T14:30:59;1.25;;;0.40;;
42124;SDS011;27787;44.594;11.046;2023-01-10T14:34:04;1.10;;;0.38;;
42124;SDS011;27787;44.594;11.046;2023-01-10T14:36:57;1.73;;;0.75;;
42124;SDS011;27787;44.594;11.046;2023-01-10T14:39:43;3.95;;;1.13;;
42124;SDS011;27787;44.594;11.046;2023-01-10T14:42:28;4.85;;;0.75;;
42124;SDS011;27787;44.594;11.046;2023-01-10T14:51:31;1.38;;;0.52;;
42124;SDS011;27787;44.594;11.046;2023-01-10T14:54:17;1.98;;;0.70;;
42124;SDS011;27787;44.594;11.046;2023-01-10T14:57:03;1.77;;;0.63;;
42124;SDS011;27787;44.594;11.046;2023-01-10T14:59:48;2.78;;;0.93;;
42124;SDS011;27787;44.594;11.046;2023-01-10T15:02:33;1.65;;;0.73;;
42124;SDS011;27787;44.594;11.046;2023-01-10T15:05:20;0.60;;;0.40;;
42124;SDS011;27787;44.594;11.046;2023-01-10T15:08:20;7.07;;;0.57;;
42124;SDS011;27787;44.594;11.046;2023-01-10T15:11:09;0.50;;;0.30;;
42124;SDS011;27787;44.594;11.046;2023-01-10T15:13:59;0.50;;;0.30;;
42124;SDS011;27787;44.594;11.046;2023-01-10T15:16:48;1.42;;;0.68;;
42124;SDS011;27787;44.594;11.046;2023-01-10T15:19:36;2.25;;;0.70;;
42124;SDS011;27787;44.594;11.046;2023-01-10T15:28:01;1.38;;;0.88;;
42124;SDS011;27787;44.594;11.046;2023-01-10T15:30:45;6.18;;;2.95;;
42124;SDS011;27787;44.594;11.046;2023-01-10T15:33:31;5.05;;;1.75;;
42124;SDS011;27787;44.594;11.046;2023-01-10T15:36:17;3.92;;;1.80;;
42124;SDS011;27787;44.594;11.046;2023-01-10T15:39:10;4.88;;;1.58;;
42124;SDS011;27787;44.594;11.046;2023-01-10T15:42:02;4.43;;;2.45;;
42124;SDS011;27787;44.594;11.046;2023-01-10T15:44:51;9.05;;;1.60;;
42124;SDS011;27787;44.594;11.046;2023-01-10T15:47:50;2.92;;;1.10;;
42124;SDS011;27787;44.594;11.046;2023-01-10T15:50:36;3.67;;;0.90;;
42124;SDS011;27787;44.594;11.046;2023-01-10T15:53:21;1.63;;;0.90;;
42124;SDS011;27787;44.594;11.046;2023-01-10T15:56:48;1.05;;;0.65;;
42124;SDS011;27787;44.594;11.046;2023-01-10T15:59:35;8.35;;;0.95;;
42124;SDS011;27787;44.594;11.046;2023-01-10T16:02:23;5.88;;;0.95;;
42124;SDS011;27787;44.594;11.046;2023-01-10T16:05:12;2.40;;;0.80;;
42124;SDS011;27787;44.594;11.046;2023-01-10T16:08:02;5.38;;;1.02;;
42124;SDS011;27787;44.594;11.046;2023-01-10T16:10:50;2.50;;;1.00;;
42124;SDS011;27787;44.594;11.046;2023-01-10T16:13:40;2.00;;;1.02;;
42124;SDS011;27787;44.594;11.046;2023-01-10T16:16:24;4.53;;;1.13;;
42124;SDS011;27787;44.594;11.046;2023-01-10T16:19:08;4.90;;;1.52;;
42124;SDS011;27787;44.594;11.046;2023-01-10T16:21:56;3.97;;;1.80;;
42124;SDS011;27787;44.594;11.046;2023-01-10T16:24:42;3.33;;;1.70;;
42124;SDS011;27787;44.594;11.046;2023-01-10T16:27:26;6.90;;;2.43;;
42124;SDS011;27787;44.594;11.046;2023-01-10T16:30:22;3.30;;;2.00;;
42124;SDS011;27787;44.594;11.046;2023-01-10T16:33:09;4.28;;;1.70;;
42124;SDS011;27787;44.594;11.046;2023-01-10T16:35:56;5.68;;;2.50;;
42124;SDS011;27787;44.594;11.046;2023-01-10T16:38:42;8.43;;;4.20;;
42124;SDS011;27787;44.594;11.046;2023-01-10T16:41:27;6.35;;;2.72;;
42124;SDS011;27787;44.594;11.046;2023-01-10T16:44:31;9.73;;;2.30;;
42124;SDS011;27787;44.594;11.046;2023-01-10T16:47:17;3.90;;;2.00;;
42124;SDS011;27787;44.594;11.046;2023-01-10T16:50:00;4.80;;;2.22;;
42124;SDS011;27787;44.594;11.046;2023-01-10T16:52:44;5.65;;;1.88;;
42124;SDS011;27787;44.594;11.046;2023-01-10T16:55:32;3.60;;;1.75;;
42124;SDS011;27787;44.594;11.046;2023-01-10T16:58:21;4.55;;;1.98;;
42124;SDS011;27787;44.594;11.046;2023-01-10T17:01:05;4.03;;;1.55;;
42124;SDS011;27787;44.594;11.046;2023-01-10T17:03:52;5.20;;;1.98;;
42124;SDS011;27787;44.594;11.046;2023-01-10T17:06:37;5.77;;;2.27;;
42124;SDS011;27787;44.594;11.046;2023-01-10T17:09:24;11.23;;;2.38;;
42124;SDS011;27787;44.594;11.046;2023-01-10T17:12:12;6.57;;;1.90;;
42124;SDS011;27787;44.594;11.046;2023-01-10T17:15:01;5.78;;;2.65;;
42124;SDS011;27787;44.594;11.046;2023-01-10T17:17:47;4.40;;;1.80;;
42124;SDS011;27787;44.594;11.046;2023-01-10T17:20:31;5.35;;;2.40;;
42124;SDS011;27787;44.594;11.046;2023-01-10T17:23:16;7.10;;;2.85;;
42124;SDS011;27787;44.594;11.046;2023-01-10T17:26:01;7.50;;;2.90;;
42124;SDS011;27787;44.594;11.046;2023-01-10T17:28:47;7.35;;;3.35;;
42124;SDS011;27787;44.594;11.046;2023-01-10T17:31:32;7.68;;;3.00;;
42124;SDS011;27787;44.594;11.046;2023-01-10T17:34:16;9.70;;;3.30;;
42124;SDS011;27787;44.594;11.046;2023-01-10T17:37:01;7.53;;;3.70;;
42124;SDS011;27787;44.594;11.046;2023-01-10T17:39:46;7.28;;;3.78;;
42124;SDS011;27787;44.594;11.046;2023-01-10T17:42:30;8.30;;;4.00;;
42124;SDS011;27787;44.594;11.046;2023-01-10T17:45:14;8.10;;;3.40;;
42124;SDS011;27787;44.594;11.046;2023-01-10T17:47:59;6.65;;;3.10;;
42124;SDS011;27787;44.594;11.046;2023-01-10T17:50:44;6.82;;;3.05;;
42124;SDS011;27787;44.594;11.046;2023-01-10T17:53:29;8.90;;;3.20;;
42124;SDS011;27787;44.594;11.046;2023-01-10T17:56:14;13.43;;;3.97;;
42124;SDS011;27787;44.594;11.046;2023-01-10T17:58:58;8.48;;;4.07;;
42124;SDS011;27787;44.594;11.046;2023-01-10T18:01:42;9.23;;;3.85;;
42124;SDS011;27787;44.594;11.046;2023-01-10T18:04:26;11.57;;;3.53;;